FIMP

Sir Seewoosagur Ramgoolam International Airport

Port Louis, Mauritius
METAR FIMP 152300Z 12009KT 9999 SCT015 BKN050 24/20 Q1018
Observed Flight Rules
Nov-15 @ 23:00 UTC (12 minutes ago) Visual Flight Rules
Wind Visibility Clouds
120° at 9 knots 10,000+ meters
  • Scattered at 1,500' AGL
  • Broken at 5,000' AGL
Temperatures Readings
Current 24°C / 75°F
Dewpoint 20°C / 68°F
Humidity 78%
Altimeter 30.06" Hg
Pressure 1018 hPa
Elevation 57
METAR FIMP 152300Z 12009KT 9999 SCT015 BKN050 24/20 Q1018
Observed Flight Rules
Nov-15 @ 23:00 UTC
(12 minutes ago)
VFR
Wind Visibility
120° at 9 knots 10,000+ meters
Clouds
  • Scattered at 1,500' AGL
  • Broken at 5,000' AGL
Temperature Dewpoint
24°C / 75°F 20°C / 68°F
Humidity Altimeter Pressure
78% 30.06" Hg 1018 hPa